Orbital elements of COSMOS 943
| Launched | 23 August 1977 |
| Flight ended | – |
| Launch site | Plesetsk Missile and Space Complex, Russia |
| Owner | Commonwealth of Independent States (former USSR) |
| NORAD ID | 10289 |
| Date fetched |
Epoch osculation |
Inc. [°] |
Ecc. | RA asc node [hr] |
Arg Peri. [°] |
Mean anom [°] |
Mean motion [rev/day] |
Abs. mag |
| Date fetched |
Epoch osculation |
Inc. [°] |
Ecc. | RA asc node [hr] |
Arg Peri. [°] |
Mean anom [°] |
Mean motion [rev/day] |
Abs. mag |
| 2026 May 08 17:57 | 2026 May 05 11:00:41 | 74.0234 | 0.00080 | 19.1595 | 270.4064 | 118.3618 | 12.52098 | – |
| 2026 May 07 17:58 | 2026 May 05 11:00:41 | 74.0234 | 0.00080 | 19.1595 | 270.4064 | 118.3618 | 12.52098 | – |
| 2026 May 06 17:57 | 2026 May 05 11:00:41 | 74.0234 | 0.00080 | 19.1595 | 270.4064 | 118.3618 | 12.52098 | – |
| 2026 May 05 17:57 | 2026 May 05 11:00:41 | 74.0234 | 0.00080 | 19.1595 | 270.4064 | 118.3618 | 12.52098 | – |
| 2026 May 04 17:57 | 2026 Apr 30 14:14:45 | 74.0232 | 0.00079 | 19.5924 | 277.3364 | 118.3618 | 12.52098 | – |
| 2026 May 03 17:57 | 2026 Apr 30 14:14:45 | 74.0232 | 0.00079 | 19.5924 | 277.3364 | 118.3618 | 12.52098 | – |
| 2026 May 02 17:57 | 2026 Apr 30 14:14:45 | 74.0232 | 0.00079 | 19.5924 | 277.3364 | 118.3618 | 12.52098 | – |
| 2026 May 01 17:56 | 2026 Apr 30 14:14:45 | 74.0232 | 0.00079 | 19.5924 | 277.3364 | 118.3618 | 12.52098 | – |
| 2026 Apr 30 17:56 | 2026 Apr 30 14:14:45 | 74.0232 | 0.00079 | 19.5924 | 277.3364 | 118.3618 | 12.52098 | – |
| 2026 Apr 29 17:57 | 2026 Apr 24 12:30:55 | 74.0232 | 0.00079 | 20.1328 | 285.7766 | 118.3618 | 12.52098 | – |
| 2026 Apr 28 17:56 | 2026 Apr 24 12:30:55 | 74.0232 | 0.00079 | 20.1328 | 285.7766 | 118.3618 | 12.52098 | – |
| 2026 Apr 27 17:58 | 2026 Apr 24 12:30:55 | 74.0232 | 0.00079 | 20.1328 | 285.7766 | 118.3618 | 12.52098 | – |
| 2026 Apr 26 17:58 | 2026 Apr 24 12:30:55 | 74.0232 | 0.00079 | 20.1328 | 285.7766 | 118.3618 | 12.52098 | – |
| 2026 Apr 25 17:58 | 2026 Apr 24 12:30:55 | 74.0232 | 0.00079 | 20.1328 | 285.7766 | 118.3618 | 12.52098 | – |
| 2026 Apr 24 17:59 | 2026 Apr 24 12:30:55 | 74.0232 | 0.00079 | 20.1328 | 285.7766 | 118.3618 | 12.52098 | – |
| 2026 Apr 23 17:57 | 2026 Apr 19 06:32:42 | 74.0238 | 0.00079 | 20.5998 | 293.2525 | 118.3618 | 12.52098 | – |
| 2026 Apr 22 17:57 | 2026 Apr 19 06:32:42 | 74.0238 | 0.00079 | 20.5998 | 293.2525 | 118.3618 | 12.52098 | – |
| 2026 Apr 21 17:57 | 2026 Apr 19 06:32:42 | 74.0238 | 0.00079 | 20.5998 | 293.2525 | 118.3618 | 12.52098 | – |
| 2026 Apr 20 17:57 | 2026 Apr 19 06:32:42 | 74.0238 | 0.00079 | 20.5998 | 293.2525 | 118.3618 | 12.52098 | – |
| 2026 Apr 19 17:58 | 2026 Apr 19 06:32:42 | 74.0238 | 0.00079 | 20.5998 | 293.2525 | 118.3618 | 12.52098 | – |
| 2026 Apr 18 17:56 | 2026 Apr 13 00:57:37 | 74.0249 | 0.00079 | 21.1544 | 301.9855 | 118.3618 | 12.52098 | – |
| 2026 Apr 16 17:57 | 2026 Apr 13 00:57:37 | 74.0249 | 0.00079 | 21.1544 | 301.9855 | 118.3618 | 12.52098 | – |
| 2026 Apr 14 17:57 | 2026 Apr 13 00:57:37 | 74.0249 | 0.00079 | 21.1544 | 301.9855 | 118.3618 | 12.52098 | – |
| 2026 Apr 13 17:57 | 2026 Apr 13 00:57:37 | 74.0249 | 0.00079 | 21.1544 | 301.9855 | 118.3618 | 12.52098 | – |
| 2026 Apr 12 17:57 | 2026 Apr 08 14:45:07 | 74.0258 | 0.00078 | 21.5482 | 308.2183 | 118.3618 | 12.52098 | – |
| 2026 Apr 11 17:57 | 2026 Apr 08 14:45:07 | 74.0258 | 0.00078 | 21.5482 | 308.2183 | 118.3618 | 12.52098 | – |